Time;durP1;ratioP1;P1;durP2;ratioP2;P2;SDS_P1;SDS_P2;PMS_P1;PMS_P2;Temp;Humidity;BMP_temperature;BMP_pressure;BME280_temperature;BME280_humidity;BME280_pressure;Samples;Min_cycle;Max_cycle;Signal;HPM_P1;HPM_P2
2021/04/28 00:00:53;;;;;;;9.48;3.03;;;5.90;66.50;;;;;;5017415;28;20026;-76
2021/04/28 00:03:21;;;;;;;6.78;3.25;;;5.90;67.90;;;;;;5019853;28;20557;-76
2021/04/28 00:05:46;;;;;;;7.90;2.50;;;5.90;66.50;;;;;;5020921;28;20471;-76
2021/04/28 00:08:12;;;;;;;3.90;2.25;;;5.90;66.30;;;;;;5019382;28;20021;-76
2021/04/28 00:10:40;;;;;;;7.85;2.50;;;5.90;66.00;;;;;;5018638;28;20034;-76
2021/04/28 00:13:08;;;;;;;4.47;2.80;;;6.00;66.00;;;;;;5021099;28;20025;-76
2021/04/28 00:15:37;;;;;;;6.40;3.17;;;6.00;66.80;;;;;;5023196;28;20025;-76
2021/04/28 00:18:03;;;;;;;4.88;3.08;;;5.90;64.80;;;;;;5022369;28;20496;-77
2021/04/28 00:20:28;;;;;;;8.18;2.90;;;6.00;65.50;;;;;;5021377;28;20107;-76
2021/04/28 00:22:54;;;;;;;9.55;3.47;;;6.00;64.50;;;;;;5028566;28;20037;-76
2021/04/28 00:25:22;;;;;;;6.72;3.13;;;6.00;65.10;;;;;;5013378;28;20559;-76
2021/04/28 00:27:48;;;;;;;6.20;2.80;;;6.00;64.00;;;;;;5019048;28;20105;-76
2021/04/28 00:30:16;;;;;;;5.93;2.90;;;6.10;63.60;;;;;;5017895;28;20025;-77
2021/04/28 00:32:43;;;;;;;8.95;2.95;;;6.10;63.50;;;;;;5019395;28;20021;-77
2021/04/28 00:35:11;;;;;;;6.03;2.50;;;6.00;63.30;;;;;;5020091;28;20095;-77
2021/04/28 00:37:37;;;;;;;4.40;2.22;;;6.00;62.70;;;;;;5013160;28;20116;-77
2021/04/28 00:40:26;;;;;;;5.68;2.33;;;6.10;63.70;;;;;;5022416;28;20464;-77
2021/04/28 00:42:52;;;;;;;4.50;2.60;;;6.10;63.30;;;;;;5015287;28;20185;-77
2021/04/28 00:45:20;;;;;;;9.48;2.72;;;6.10;63.40;;;;;;5024405;28;20037;-76
2021/04/28 00:47:48;;;;;;;7.63;2.85;;;6.10;63.20;;;;;;5019261;28;20065;-77
2021/04/28 00:50:18;;;;;;;4.07;2.28;;;6.00;63.20;;;;;;5015040;28;20493;-77
2021/04/28 00:52:43;;;;;;;5.63;3.00;;;6.00;63.30;;;;;;5015656;28;20029;-77
2021/04/28 00:55:10;;;;;;;6.10;3.05;;;5.90;63.90;;;;;;5011197;28;20022;-77
2021/04/28 00:57:35;;;;;;;3.80;2.55;;;5.90;64.90;;;;;;5016110;28;20499;-77
2021/04/28 01:00:05;;;;;;;4.72;2.42;;;5.80;66.00;;;;;;4997505;28;20021;-77
2021/04/28 01:02:31;;;;;;;4.53;2.67;;;5.80;65.10;;;;;;5014733;28;20037;-77
2021/04/28 01:04:56;;;;;;;5.03;2.80;;;5.70;66.20;;;;;;5023751;28;20029;-77
2021/04/28 01:07:22;;;;;;;6.05;2.78;;;5.60;66.60;;;;;;5013765;28;20041;-77
2021/04/28 01:09:48;;;;;;;6.30;2.30;;;5.50;67.70;;;;;;5016654;28;20051;-76
2021/04/28 01:12:14;;;;;;;3.70;2.47;;;5.50;67.40;;;;;;5011719;28;20164;-77
2021/04/28 01:14:39;;;;;;;3.97;2.67;;;5.40;67.40;;;;;;5012271;28;20457;-76
2021/04/28 01:17:06;;;;;;;3.75;2.50;;;5.40;68.90;;;;;;5010067;28;20460;-77
2021/04/28 01:19:36;;;;;;;4.15;2.50;;;5.30;69.10;;;;;;5010750;28;20041;-77
2021/04/28 01:22:02;;;;;;;4.50;3.00;;;5.20;68.40;;;;;;5010705;28;20540;-77
2021/04/28 01:24:30;;;;;;;3.90;2.63;;;5.20;68.10;;;;;;5014363;28;20128;-77
2021/04/28 01:27:01;;;;;;;9.07;3.00;;;5.20;69.00;;;;;;5018760;28;20028;-76
2021/04/28 01:29:27;;;;;;;4.70;2.67;;;5.20;68.50;;;;;;5014023;28;20088;-76
2021/04/28 01:31:56;;;;;;;7.53;2.58;;;5.20;67.40;;;;;;5009271;28;20038;-77
2021/04/28 01:34:23;;;;;;;4.90;2.88;;;5.30;66.70;;;;;;5015764;28;20080;-77
2021/04/28 01:36:51;;;;;;;4.18;2.15;;;5.30;65.90;;;;;;5020276;28;20021;-77
2021/04/28 01:39:18;;;;;;;8.95;3.50;;;5.30;65.40;;;;;;5014930;28;20033;-76
2021/04/28 01:41:46;;;;;;;5.20;2.70;;;5.50;64.90;;;;;;5016264;28;20041;-76
2021/04/28 01:44:16;;;;;;;3.80;2.85;;;5.50;65.10;;;;;;5015449;28;20025;-76
2021/04/28 01:46:42;;;;;;;8.52;2.95;;;5.60;64.50;;;;;;5014484;28;20029;-76
2021/04/28 01:49:08;;;;;;;11.75;2.28;;;5.60;64.30;;;;;;5012950;28;20032;-76
2021/04/28 01:51:36;;;;;;;16.13;3.08;;;5.60;64.00;;;;;;5013776;28;20124;-76
2021/04/28 01:54:04;;;;;;;4.25;2.80;;;5.60;64.10;;;;;;5014320;28;20036;-76
2021/04/28 01:56:30;;;;;;;3.90;2.60;;;5.70;63.80;;;;;;5012509;28;20030;-76
2021/04/28 01:58:57;;;;;;;4.75;2.30;;;5.80;63.40;;;;;;5011693;28;20030;-76
2021/04/28 02:01:23;;;;;;;11.50;2.90;;;5.70;63.40;;;;;;5018599;28;20110;-76
2021/04/28 02:03:49;;;;;;;7.75;3.35;;;5.60;63.90;;;;;;5018235;28;20025;-75
2021/04/28 02:06:16;;;;;;;6.90;2.95;;;5.70;63.90;;;;;;5005794;28;20074;-75
2021/04/28 02:08:41;;;;;;;4.07;2.63;;;5.70;64.30;;;;;;5019951;28;20069;-75
2021/04/28 02:11:07;;;;;;;5.18;2.70;;;5.70;63.80;;;;;;5015153;28;20088;-76
2021/04/28 02:13:37;;;;;;;5.70;2.97;;;5.70;63.80;;;;;;5019519;28;20544;-75
2021/04/28 02:16:03;;;;;;;3.40;2.40;;;5.70;64.60;;;;;;5016646;28;20383;-75
2021/04/28 02:18:29;;;;;;;4.82;2.65;;;5.50;64.80;;;;;;4996644;28;20053;-75
2021/04/28 02:20:56;;;;;;;7.15;2.97;;;5.50;64.80;;;;;;5016860;28;20045;-76
2021/04/28 02:23:23;;;;;;;7.18;3.03;;;5.50;64.50;;;;;;5017355;28;20030;-76
2021/04/28 02:25:49;;;;;;;5.60;2.55;;;5.60;64.50;;;;;;5014746;28;20036;-76
2021/04/28 02:28:14;;;;;;;8.50;3.60;;;5.60;64.80;;;;;;5014659;28;20483;-75
2021/04/28 02:30:40;;;;;;;8.07;2.60;;;5.50;65.00;;;;;;5013604;28;20090;-75
2021/04/28 02:33:06;;;;;;;6.90;3.20;;;5.50;65.00;;;;;;5020546;28;20357;-75
2021/04/28 02:35:31;;;;;;;6.13;2.60;;;5.50;65.20;;;;;;5018356;28;20018;-75
2021/04/28 02:38:09;;;;;;;6.65;2.70;;;5.40;65.10;;;;;;5012064;28;21503;-75
2021/04/28 02:40:37;;;;;;;9.02;3.20;;;5.30;65.70;;;;;;5016912;28;20029;-75
2021/04/28 02:43:03;;;;;;;6.10;2.83;;;5.30;66.10;;;;;;5013811;28;20107;-75
2021/04/28 02:45:30;;;;;;;3.88;2.90;;;5.20;66.20;;;;;;5006170;28;20477;-75
2021/04/28 02:47:55;;;;;;;7.07;3.20;;;5.20;66.60;;;;;;5010868;28;20030;-75
2021/04/28 02:50:24;;;;;;;8.98;3.38;;;5.20;66.10;;;;;;4995372;28;20045;-75
2021/04/28 02:52:52;;;;;;;8.05;3.35;;;5.20;66.80;;;;;;5005056;28;20030;-76
2021/04/28 02:55:18;;;;;;;5.85;3.40;;;5.20;66.40;;;;;;5023854;28;20414;-75
2021/04/28 02:57:47;;;;;;;6.05;2.60;;;5.10;66.70;;;;;;5015195;28;20112;-75
2021/04/28 03:00:16;;;;;;;6.38;3.03;;;5.10;67.10;;;;;;5014026;28;20025;-75
2021/04/28 03:02:42;;;;;;;6.63;2.50;;;5.00;68.40;;;;;;5017045;28;20034;-75
2021/04/28 03:05:11;;;;;;;5.40;2.35;;;5.00;67.70;;;;;;5012861;28;20056;-75
2021/04/28 03:07:37;;;;;;;8.13;2.92;;;5.00;67.10;;;;;;5017786;28;20029;-75
2021/04/28 03:10:04;;;;;;;5.75;2.95;;;5.10;67.20;;;;;;5020713;28;20041;-75
2021/04/28 03:12:32;;;;;;;5.30;3.05;;;5.00;67.70;;;;;;5013353;28;20378;-76
2021/04/28 03:14:58;;;;;;;5.55;2.75;;;4.90;67.90;;;;;;5018996;28;20200;-75
2021/04/28 03:17:23;;;;;;;8.00;3.53;;;4.90;68.20;;;;;;5019565;28;20117;-75
2021/04/28 03:19:51;;;;;;;9.32;2.92;;;4.90;68.40;;;;;;5017818;28;20033;-75
2021/04/28 03:22:18;;;;;;;5.22;3.08;;;4.80;68.00;;;;;;5015188;28;20031;-75
2021/04/28 03:24:46;;;;;;;5.60;3.13;;;4.80;68.60;;;;;;5017320;28;20084;-75
2021/04/28 03:27:14;;;;;;;7.10;3.40;;;4.80;68.70;;;;;;5018283;28;20014;-75
2021/04/28 03:29:40;;;;;;;7.22;3.17;;;4.80;69.10;;;;;;5015769;28;20034;-75
2021/04/28 03:32:07;;;;;;;6.25;3.00;;;4.70;69.00;;;;;;5020308;28;20029;-75
2021/04/28 03:34:32;;;;;;;6.35;3.15;;;4.70;69.90;;;;;;5017842;28;20052;-75
2021/04/28 03:36:58;;;;;;;8.40;3.22;;;4.80;69.20;;;;;;5018987;28;20030;-75
2021/04/28 03:39:24;;;;;;;4.93;2.95;;;4.70;70.30;;;;;;5014234;28;20026;-75
2021/04/28 03:41:51;;;;;;;7.38;3.38;;;4.70;69.60;;;;;;5016251;28;20052;-76
2021/04/28 03:44:16;;;;;;;4.80;3.00;;;4.70;69.60;;;;;;5017142;28;20369;-76
2021/04/28 03:46:42;;;;;;;8.68;2.97;;;4.80;69.40;;;;;;5009740;28;20040;-76
2021/04/28 03:49:08;;;;;;;6.60;3.25;;;4.80;69.20;;;;;;5020185;28;20396;-76
2021/04/28 03:51:33;;;;;;;7.57;2.65;;;4.80;69.80;;;;;;5018189;28;20041;-76
2021/04/28 03:53:59;;;;;;;5.45;3.28;;;4.70;70.60;;;;;;5015723;28;20061;-76
2021/04/28 03:56:27;;;;;;;6.22;2.92;;;4.70;70.50;;;;;;5015512;28;20572;-76
2021/04/28 03:58:53;;;;;;;3.53;2.90;;;4.70;70.10;;;;;;5016891;28;20049;-76
2021/04/28 04:01:24;;;;;;;9.85;3.42;;;4.80;70.10;;;;;;5013221;28;20057;-76
2021/04/28 04:03:50;;;;;;;4.43;2.40;;;4.90;70.50;;;;;;5017592;28;20033;-76
2021/04/28 04:06:15;;;;;;;7.45;2.97;;;4.90;70.00;;;;;;5019751;28;20046;-76
2021/04/28 04:08:41;;;;;;;7.03;3.33;;;4.80;70.60;;;;;;5016332;28;20030;-76
2021/04/28 04:11:06;;;;;;;7.28;3.33;;;4.80;70.60;;;;;;5017152;28;20026;-76
2021/04/28 04:13:33;;;;;;;8.02;2.72;;;4.80;70.90;;;;;;5023170;28;20590;-76
2021/04/28 04:15:58;;;;;;;7.55;3.10;;;4.80;70.40;;;;;;5011509;28;20064;-76
2021/04/28 04:18:24;;;;;;;7.07;2.95;;;4.90;70.20;;;;;;5019823;28;20033;-76
2021/04/28 04:20:49;;;;;;;9.07;3.70;;;5.00;70.20;;;;;;5020732;28;20495;-76
2021/04/28 04:23:15;;;;;;;23.40;3.85;;;4.90;70.70;;;;;;5014797;28;20026;-76
2021/04/28 04:25:40;;;;;;;10.27;3.92;;;4.90;70.70;;;;;;5014353;28;20034;-76
2021/04/28 04:28:06;;;;;;;8.60;3.78;;;5.00;70.50;;;;;;5013557;28;20476;-76
2021/04/28 04:30:31;;;;;;;7.60;4.00;;;4.90;70.70;;;;;;5017231;28;20033;-76
2021/04/28 04:32:57;;;;;;;5.07;3.25;;;4.90;70.90;;;;;;5018334;28;20029;-76
2021/04/28 04:35:23;;;;;;;7.80;2.85;;;4.90;71.40;;;;;;5014733;28;20045;-76
2021/04/28 04:37:49;;;;;;;11.30;3.50;;;5.00;70.90;;;;;;5017255;28;20109;-76
2021/04/28 04:40:14;;;;;;;5.43;2.90;;;5.00;71.30;;;;;;5013769;28;20176;-76
2021/04/28 04:42:40;;;;;;;5.80;3.40;;;4.90;71.80;;;;;;5021675;28;20037;-76
2021/04/28 04:45:06;;;;;;;8.43;3.90;;;4.90;72.00;;;;;;5016794;28;20036;-76
2021/04/28 04:47:32;;;;;;;5.47;3.17;;;5.00;70.80;;;;;;5009808;28;20511;-76
2021/04/28 04:49:58;;;;;;;5.65;3.33;;;5.10;71.60;;;;;;5019079;28;20064;-76
2021/04/28 04:52:24;;;;;;;7.20;3.38;;;5.10;70.80;;;;;;5018326;28;20087;-76
2021/04/28 04:54:49;;;;;;;7.65;3.33;;;5.10;71.00;;;;;;5021559;28;20387;-76
2021/04/28 04:57:15;;;;;;;5.20;3.13;;;5.10;71.00;;;;;;5012563;28;20544;-76
2021/04/28 04:59:40;;;;;;;8.90;3.65;;;5.20;71.00;;;;;;5015099;28;20033;-75
2021/04/28 05:02:06;;;;;;;20.20;3.95;;;5.10;71.10;;;;;;5011318;28;20037;-76
2021/04/28 05:04:31;;;;;;;7.72;3.88;;;5.20;71.00;;;;;;5017122;28;20476;-76
2021/04/28 05:06:57;;;;;;;10.82;4.18;;;5.20;70.60;;;;;;5012169;28;20476;-76
2021/04/28 05:09:25;;;;;;;8.00;4.05;;;5.30;70.60;;;;;;5016785;28;20033;-75
2021/04/28 05:11:50;;;;;;;4.90;2.75;;;5.40;71.70;;;;;;5013396;28;20471;-76
2021/04/28 05:14:16;;;;;;;12.10;3.88;;;5.40;71.00;;;;;;5017969;28;20400;-76
2021/04/28 05:16:41;;;;;;;8.32;4.30;;;5.40;70.90;;;;;;5017050;28;20112;-76
2021/04/28 05:19:07;;;;;;;7.82;3.85;;;5.50;70.30;;;;;;5012753;28;20057;-76
2021/04/28 05:21:39;;;;;;;6.97;3.05;;;5.60;69.10;;;;;;5011397;28;20021;-76
2021/04/28 05:24:10;;;;;;;8.15;4.30;;;5.70;68.60;;;;;;5014356;28;20128;-75
2021/04/28 05:26:36;;;;;;;8.18;3.63;;;5.70;69.30;;;;;;5010757;28;20503;-76
2021/04/28 05:29:02;;;;;;;9.68;4.05;;;5.80;68.40;;;;;;5019359;28;20032;-75
2021/04/28 05:31:27;;;;;;;8.30;3.78;;;5.80;68.70;;;;;;5011894;28;20558;-76
2021/04/28 05:33:52;;;;;;;9.05;3.60;;;5.90;68.90;;;;;;5015900;28;20510;-76
2021/04/28 05:36:18;;;;;;;9.48;4.18;;;5.90;69.50;;;;;;4990639;28;20029;-76
2021/04/28 05:38:44;;;;;;;13.63;3.80;;;5.90;68.90;;;;;;5024292;28;20025;-75
2021/04/28 05:41:09;;;;;;;5.00;3.42;;;6.00;69.80;;;;;;5014074;28;20022;-76
2021/04/28 05:43:35;;;;;;;7.88;3.45;;;6.00;68.30;;;;;;5011267;28;20477;-76
2021/04/28 05:46:01;;;;;;;7.40;3.67;;;6.10;68.70;;;;;;5015792;28;20028;-75
2021/04/28 05:48:27;;;;;;;6.32;3.55;;;6.20;68.10;;;;;;5018085;28;20021;-76
2021/04/28 05:50:52;;;;;;;11.27;4.20;;;6.30;68.00;;;;;;5015251;28;20046;-75
2021/04/28 05:53:18;;;;;;;6.50;3.63;;;6.40;66.90;;;;;;5015566;28;20060;-75
2021/04/28 05:55:44;;;;;;;10.68;4.10;;;6.50;67.30;;;;;;5014679;28;20033;-77
2021/04/28 05:58:12;;;;;;;10.07;4.25;;;6.60;66.20;;;;;;5019311;28;20028;-76
2021/04/28 06:00:38;;;;;;;8.88;4.18;;;6.70;65.70;;;;;;5023378;28;20037;-76
2021/04/28 06:03:04;;;;;;;8.40;4.13;;;6.80;65.10;;;;;;5015016;28;20380;-75
2021/04/28 06:05:33;;;;;;;8.02;4.55;;;6.80;64.60;;;;;;5016441;28;20424;-74
2021/04/28 06:07:59;;;;;;;29.20;4.35;;;6.90;64.10;;;;;;5011926;28;20061;-77
2021/04/28 06:10:24;;;;;;;11.25;4.80;;;7.00;63.90;;;;;;5011486;28;20076;-76
2021/04/28 06:12:50;;;;;;;11.90;4.78;;;7.10;63.80;;;;;;5016917;28;20068;-76
2021/04/28 06:15:17;;;;;;;14.23;5.10;;;7.10;63.20;;;;;;5009748;28;20071;-75
2021/04/28 06:17:43;;;;;;;8.23;4.15;;;7.10;62.80;;;;;;5018754;28;20578;-77
2021/04/28 06:20:15;;;;;;;19.70;4.90;;;7.20;63.50;;;;;;5016040;28;20034;-76
2021/04/28 06:22:42;;;;;;;9.02;4.60;;;7.20;62.30;;;;;;5015773;28;20040;-77
2021/04/28 06:25:09;;;;;;;10.90;4.20;;;7.30;62.10;;;;;;5014407;28;20057;-77
2021/04/28 06:27:35;;;;;;;9.30;4.18;;;7.40;62.70;;;;;;5013896;28;20038;-75
2021/04/28 06:30:01;;;;;;;13.32;4.75;;;7.40;62.40;;;;;;5012991;28;20030;-76
2021/04/28 06:32:26;;;;;;;13.20;4.65;;;7.50;62.20;;;;;;5015381;28;20027;-76
2021/04/28 06:34:52;;;;;;;11.10;4.43;;;7.50;62.30;;;;;;5010289;28;20404;-76
2021/04/28 06:37:17;;;;;;;10.18;4.65;;;7.60;61.90;;;;;;5014789;28;20570;-76
2021/04/28 06:39:43;;;;;;;9.45;4.97;;;7.70;61.30;;;;;;5007367;28;20030;-76
2021/04/28 06:42:09;;;;;;;8.75;4.20;;;7.70;61.70;;;;;;5014617;28;20496;-76
2021/04/28 06:44:34;;;;;;;11.23;4.55;;;7.80;61.00;;;;;;5019212;28;20052;-76
2021/04/28 06:47:00;;;;;;;11.02;4.32;;;7.90;61.90;;;;;;5017328;28;20029;-76
2021/04/28 06:49:25;;;;;;;14.05;4.97;;;8.00;60.90;;;;;;5013657;28;20064;-76
2021/04/28 06:51:51;;;;;;;14.60;4.57;;;8.00;60.10;;;;;;5014291;28;20072;-76
2021/04/28 06:54:17;;;;;;;9.52;4.28;;;8.10;60.40;;;;;;5018797;28;20491;-76
2021/04/28 06:56:43;;;;;;;13.35;5.05;;;8.20;60.20;;;;;;5015930;28;20030;-76
2021/04/28 06:59:09;;;;;;;9.85;4.93;;;8.30;61.60;;;;;;5012540;28;20033;-76
2021/04/28 07:01:35;;;;;;;10.35;4.38;;;8.50;60.20;;;;;;5013037;28;20032;-77
2021/04/28 07:04:01;;;;;;;12.50;4.95;;;8.60;59.50;;;;;;5014089;28;20030;-75
2021/04/28 07:06:27;;;;;;;11.02;4.43;;;8.70;59.10;;;;;;5020425;28;20515;-77
2021/04/28 07:08:52;;;;;;;12.63;5.10;;;8.70;59.30;;;;;;5007085;28;20034;-76
2021/04/28 07:11:18;;;;;;;13.98;4.70;;;8.80;58.90;;;;;;5010423;28;20036;-73
2021/04/28 07:13:44;;;;;;;10.65;4.55;;;8.90;58.80;;;;;;5016035;28;20026;-71
2021/04/28 07:16:09;;;;;;;16.50;6.10;;;9.00;58.10;;;;;;5014342;28;20147;-76
2021/04/28 07:18:35;;;;;;;15.35;5.78;;;9.10;58.60;;;;;;5014794;28;20088;-76
2021/04/28 07:21:00;;;;;;;12.30;4.68;;;9.20;57.30;;;;;;5012713;28;20086;-77
2021/04/28 07:23:26;;;;;;;10.63;4.80;;;9.30;56.20;;;;;;5013438;28;20025;-75
2021/04/28 07:25:51;;;;;;;11.70;5.18;;;9.40;56.90;;;;;;5017885;28;20022;-74
2021/04/28 07:28:17;;;;;;;10.32;5.07;;;9.50;56.30;;;;;;5013493;28;20080;-76
2021/04/28 07:30:43;;;;;;;15.45;4.70;;;9.60;57.00;;;;;;5017002;28;20040;-76
2021/04/28 07:33:08;;;;;;;10.50;4.50;;;9.70;56.10;;;;;;5015690;28;20570;-76
2021/04/28 07:35:34;;;;;;;11.00;5.10;;;9.80;54.50;;;;;;5014702;28;20038;-75
2021/04/28 07:37:59;;;;;;;13.88;5.05;;;10.00;55.40;;;;;;5012311;28;20026;-75
2021/04/28 07:40:25;;;;;;;11.77;4.80;;;10.20;56.40;;;;;;5012443;28;20119;-76
2021/04/28 07:42:51;;;;;;;11.50;4.88;;;10.40;56.70;;;;;;5011495;28;20033;-75
2021/04/28 07:45:18;;;;;;;11.85;5.25;;;10.60;56.00;;;;;;5016492;28;20038;-75
2021/04/28 07:47:43;;;;;;;17.15;5.05;;;10.80;55.40;;;;;;5018153;28;20036;-75
2021/04/28 07:50:10;;;;;;;17.27;5.07;;;11.00;55.20;;;;;;5018478;28;20050;-75
2021/04/28 07:52:35;;;;;;;20.48;5.68;;;11.20;54.50;;;;;;5022487;28;20021;-76
2021/04/28 07:55:01;;;;;;;12.63;5.10;;;11.40;54.00;;;;;;5020238;28;20017;-76
2021/04/28 07:57:26;;;;;;;10.85;5.03;;;11.60;54.00;;;;;;4996740;28;20091;-75
2021/04/28 07:59:52;;;;;;;12.32;5.20;;;11.70;52.70;;;;;;5022651;28;20330;-77
2021/04/28 08:02:18;;;;;;;16.67;5.55;;;11.80;51.60;;;;;;5022408;28;20056;-76
2021/04/28 08:04:43;;;;;;;12.20;5.50;;;11.90;51.20;;;;;;5014670;28;20972;-76
2021/04/28 08:07:09;;;;;;;11.48;5.95;;;11.90;51.70;;;;;;5014825;28;20028;-75
2021/04/28 08:09:35;;;;;;;17.25;5.13;;;12.10;51.50;;;;;;5012006;28;20037;-76
2021/04/28 08:12:03;;;;;;;19.85;5.60;;;12.20;52.30;;;;;;5012719;28;20040;-75
2021/04/28 08:14:34;;;;;;;13.38;5.45;;;12.30;52.20;;;;;;5012713;28;20068;-74
2021/04/28 08:17:00;;;;;;;;;;;12.50;52.20;;;;;;5013503;28;20113;-74
2021/04/28 08:19:26;;;;;;;8.68;3.95;;;12.50;50.20;;;;;;5014096;28;20003;-74
2021/04/28 08:21:53;;;;;;;14.02;5.30;;;12.50;52.10;;;;;;5010977;28;20053;-74
2021/04/28 08:24:18;;;;;;;10.32;4.20;;;12.50;52.10;;;;;;5016705;28;20045;-74
2021/04/28 08:26:47;;;;;;;15.68;5.47;;;12.40;53.10;;;;;;5010271;28;20030;-75
2021/04/28 08:29:13;;;;;;;16.23;5.38;;;12.30;52.90;;;;;;5014796;28;20030;-75
2021/04/28 08:31:39;;;;;;;13.75;5.22;;;12.30;54.00;;;;;;5023638;28;20439;-75
2021/04/28 08:34:04;;;;;;;14.50;5.32;;;12.20;53.20;;;;;;5014033;28;20365;-75
2021/04/28 08:36:34;;;;;;;16.08;5.18;;;12.20;51.90;;;;;;5015088;28;20017;-76
2021/04/28 08:39:00;;;;;;;15.18;5.18;;;12.30;52.10;;;;;;5007935;28;20021;-76
2021/04/28 08:41:26;;;;;;;18.55;5.28;;;12.30;52.10;;;;;;5016005;28;20041;-75
2021/04/28 08:43:51;;;;;;;10.77;4.78;;;12.40;53.10;;;;;;5022632;28;20029;-73
2021/04/28 08:46:16;;;;;;;16.17;6.03;;;12.50;52.30;;;;;;5014592;28;20260;-75
2021/04/28 08:48:42;;;;;;;13.88;5.47;;;12.60;51.60;;;;;;5017391;28;20022;-76
2021/04/28 08:51:08;;;;;;;15.02;5.32;;;12.70;56.40;;;;;;5017125;28;20042;-78
2021/04/28 08:53:35;;;;;;;12.05;5.75;;;12.80;52.50;;;;;;5020146;28;20021;-81
2021/04/28 08:56:06;;;;;;;16.38;4.88;;;12.90;51.80;;;;;;5017829;28;20033;-78
2021/04/28 08:58:31;;;;;;;12.52;4.85;;;13.00;52.10;;;;;;5023000;28;20022;-78
2021/04/28 09:00:57;;;;;;;15.75;5.53;;;13.10;51.20;;;;;;5024164;28;20033;-80
2021/04/28 09:03:40;;;;;;;17.05;5.35;;;13.20;51.00;;;;;;5021535;28;20435;-78
2021/04/28 09:06:25;;;;;;;10.98;5.30;;;13.40;52.40;;;;;;5017366;28;20029;-77
2021/04/28 09:08:50;;;;;;;11.10;5.57;;;13.50;52.20;;;;;;5013115;28;20120;-80
2021/04/28 09:11:34;;;;;;;7.80;4.80;;;13.70;50.50;;;;;;5015916;28;20468;-77
2021/04/28 09:14:04;;;;;;;11.32;5.43;;;13.80;49.80;;;;;;5023603;28;20021;-79
2021/04/28 09:16:30;;;;;;;11.65;5.72;;;13.80;50.80;;;;;;5022553;28;20472;-78
2021/04/28 09:18:55;;;;;;;11.05;5.50;;;14.10;50.60;;;;;;5026503;28;20048;-77
2021/04/28 09:21:56;;;;;;;10.32;4.80;;;14.10;49.00;;;;;;5026748;28;20040;-78
2021/04/28 09:24:25;;;;;;;13.00;4.75;;;14.20;50.20;;;;;;5024953;28;20033;-77
2021/04/28 09:26:54;;;;;;;11.30;5.68;;;14.20;49.00;;;;;;5023449;28;20471;-78
2021/04/28 09:29:22;;;;;;;11.93;5.50;;;14.30;50.60;;;;;;5022613;28;20112;-77
2021/04/28 09:32:02;;;;;;;12.30;5.28;;;14.40;48.50;;;;;;5024424;28;20036;-76
2021/04/28 09:34:39;;;;;;;15.60;6.03;;;14.50;49.00;;;;;;5007739;28;20087;-76
2021/04/28 09:37:09;;;;;;;11.98;5.97;;;14.50;48.00;;;;;;5027422;28;20056;-76
2021/04/28 09:39:44;;;;;;;9.63;4.55;;;14.60;47.80;;;;;;5026093;28;20021;-75
2021/04/28 09:42:12;;;;;;;11.30;5.20;;;14.80;49.30;;;;;;5024063;28;20064;-76
2021/04/28 09:44:38;;;;;;;12.77;4.63;;;14.90;47.20;;;;;;5024376;28;20095;-76
2021/04/28 09:47:14;;;;;;;11.65;5.18;;;15.10;46.50;;;;;;5024014;28;20514;-76
2021/04/28 09:49:53;;;;;;;12.52;6.00;;;15.20;48.10;;;;;;5023564;28;20068;-77
2021/04/28 09:52:44;;;;;;;10.90;5.60;;;15.20;48.30;;;;;;5026606;28;20087;-75
2021/04/28 09:55:12;;;;;;;15.13;5.95;;;15.30;48.60;;;;;;5023545;28;20068;-73
2021/04/28 09:57:49;;;;;;;13.40;5.15;;;15.30;47.40;;;;;;5021251;28;20086;-79
2021/04/28 10:00:23;;;;;;;12.35;5.65;;;15.50;48.90;;;;;;5024187;28;20116;-81
2021/04/28 10:03:01;;;;;;;11.18;5.90;;;15.50;46.60;;;;;;5009150;28;20475;-79
2021/04/28 10:05:40;;;;;;;24.38;5.90;;;15.60;46.80;;;;;;5022030;28;20048;-78
2021/04/28 10:08:20;;;;;;;15.88;6.88;;;15.70;47.20;;;;;;5021871;28;20047;-80
2021/04/28 10:10:52;;;;;;;10.57;5.82;;;15.70;48.40;;;;;;5022195;28;20026;-80
2021/04/28 10:13:18;;;;;;;15.07;5.80;;;15.90;48.00;;;;;;5024346;28;20112;-81
2021/04/28 10:15:44;;;;;;;9.88;5.82;;;15.80;44.20;;;;;;5025997;28;20029;-79
2021/04/28 10:18:12;;;;;;;15.02;6.22;;;15.90;45.10;;;;;;5024227;28;20640;-79
2021/04/28 10:20:40;;;;;;;12.50;6.22;;;16.00;45.20;;;;;;5020841;28;20388;-77
2021/04/28 10:23:08;;;;;;;20.52;6.85;;;16.20;47.20;;;;;;5023517;28;20116;-80
2021/04/28 10:25:35;;;;;;;14.70;5.70;;;16.40;45.50;;;;;;5016434;28;20076;-80
2021/04/28 10:28:06;;;;;;;11.25;6.13;;;16.60;45.50;;;;;;5023686;28;20112;-80
2021/04/28 10:30:34;;;;;;;;;;;16.80;46.60;;;;;;5024633;28;20034;-78
2021/04/28 10:33:01;;;;;;;14.63;7.13;;;17.00;44.40;;;;;;5018343;28;19920;-79
2021/04/28 10:35:29;;;;;;;15.07;5.60;;;17.10;45.30;;;;;;5024522;28;20029;-75
2021/04/28 10:37:56;;;;;;;11.13;5.88;;;17.20;43.40;;;;;;5017794;28;20112;-78
2021/04/28 10:40:24;;;;;;;11.98;6.03;;;17.30;43.30;;;;;;5022500;28;20037;-75
2021/04/28 10:42:50;;;;;;;19.27;6.70;;;17.40;41.30;;;;;;5018289;28;20112;-78
2021/04/28 10:45:19;;;;;;;15.43;6.57;;;17.60;44.00;;;;;;5022003;28;20035;-76
2021/04/28 10:47:46;;;;;;;14.65;6.60;;;17.70;41.60;;;;;;5023159;28;20775;-76
2021/04/28 10:50:18;;;;;;;16.02;6.20;;;17.70;41.40;;;;;;5022281;28;20133;-76
2021/04/28 10:53:03;;;;;;;11.27;6.03;;;17.90;42.80;;;;;;5022166;28;20030;-77
2021/04/28 10:55:38;;;;;;;15.65;6.50;;;18.20;42.60;;;;;;5017715;28;20396;-76
2021/04/28 10:58:24;;;;;;;12.45;6.22;;;18.30;41.10;;;;;;5029414;28;20048;-77
2021/04/28 11:01:10;;;;;;;19.08;6.22;;;18.50;41.60;;;;;;5022757;28;20380;-77
2021/04/28 11:03:56;;;;;;;14.80;6.80;;;18.70;40.60;;;;;;5023282;28;20026;-77
2021/04/28 11:06:25;;;;;;;13.30;6.03;;;19.00;42.40;;;;;;5020822;28;20488;-77
2021/04/28 11:08:54;;;;;;;12.80;5.50;;;19.00;39.40;;;;;;5014094;28;20030;-77
2021/04/28 11:14:15;;;;;;;10.10;4.90;;;19.30;39.70;;;;;;5024655;28;20029;-77
2021/04/28 11:16:41;;;;;;;12.60;5.18;;;19.30;37.20;;;;;;5018265;28;20719;-76
2021/04/28 11:19:24;;;;;;;8.80;4.18;;;19.50;36.50;;;;;;5024922;28;20034;-76
2021/04/28 11:22:21;;;;;;;9.20;5.20;;;19.50;35.80;;;;;;5029180;28;20033;-77
2021/04/28 11:25:07;;;;;;;10.20;4.63;;;19.70;35.70;;;;;;5025443;28;20511;-76
2021/04/28 11:27:56;;;;;;;8.48;4.50;;;20.10;37.00;;;;;;5025220;28;20056;-77
2021/04/28 11:30:24;;;;;;;8.23;4.47;;;20.60;37.30;;;;;;5026060;28;20025;-77
2021/04/28 11:33:07;;;;;;;12.93;4.63;;;21.10;36.70;;;;;;5027101;28;20037;-77
2021/04/28 11:35:33;;;;;;;12.18;5.18;;;21.80;33.00;;;;;;5031026;28;20021;-77
2021/04/28 11:38:09;;;;;;;11.13;4.47;;;22.00;31.60;;;;;;5012775;28;20029;-77
2021/04/28 11:40:48;;;;;;;10.18;5.18;;;22.50;33.70;;;;;;5023671;28;20029;-76
2021/04/28 11:43:17;;;;;;;12.27;5.00;;;22.70;34.00;;;;;;5020760;28;20021;-77
2021/04/28 11:45:43;;;;;;;11.27;5.80;;;23.50;31.80;;;;;;5015470;28;20038;-79
2021/04/28 11:48:17;;;;;;;10.98;4.53;;;24.20;31.90;;;;;;5027938;28;20036;-79
2021/04/28 11:50:55;;;;;;;9.98;5.10;;;24.90;31.90;;;;;;5021597;28;20136;-76
2021/04/28 11:53:22;;;;;;;8.70;4.82;;;25.30;29.90;;;;;;5027114;28;20388;-76
2021/04/28 11:55:51;;;;;;;13.98;5.05;;;26.00;32.70;;;;;;5019167;28;20061;-76
2021/04/28 11:58:18;;;;;;;8.77;4.78;;;26.60;28.90;;;;;;5027268;28;20038;-76
2021/04/28 12:00:44;;;;;;;12.77;5.00;;;27.40;28.30;;;;;;5021926;28;20048;-74
2021/04/28 12:03:09;;;;;;;11.15;5.10;;;28.20;28.00;;;;;;5028920;28;20018;-76
2021/04/28 12:05:35;;;;;;;12.88;4.60;;;29.10;27.70;;;;;;5025484;28;20104;-76
2021/04/28 12:08:03;;;;;;;8.55;4.60;;;29.70;25.60;;;;;;5024576;28;20084;-76
2021/04/28 12:10:29;;;;;;;7.70;4.13;;;29.70;26.20;;;;;;5014492;28;20472;-76
2021/04/28 12:12:54;;;;;;;12.80;5.47;;;30.30;24.90;;;;;;5030052;28;20032;-76
2021/04/28 12:15:20;;;;;;;13.48;4.47;;;30.00;24.50;;;;;;5030788;28;20100;-80
2021/04/28 12:17:48;;;;;;;11.90;5.10;;;29.50;26.10;;;;;;5024570;28;20018;-83
2021/04/28 12:20:18;;;;;;;8.52;4.13;;;29.30;25.70;;;;;;5016161;28;20041;-82
2021/04/28 12:22:45;;;;;;;9.77;4.15;;;29.80;24.30;;;;;;5025709;28;20112;-85
2021/04/28 12:25:15;;;;;;;11.77;4.15;;;30.80;25.00;;;;;;5032246;28;20029;-82
2021/04/28 12:27:42;;;;;;;11.80;4.78;;;31.40;22.80;;;;;;5025355;28;20477;-86
2021/04/28 12:30:15;;;;;;;9.25;3.85;;;31.80;22.60;;;;;;5027020;28;20033;-85
2021/04/28 12:32:45;;;;;;;9.82;4.10;;;31.80;23.00;;;;;;5005367;28;20057;-85
2021/04/28 12:35:20;;;;;;;7.15;3.92;;;32.20;23.10;;;;;;5004780;28;20142;-86
2021/04/28 12:38:11;;;;;;;7.63;4.13;;;32.70;24.30;;;;;;5017639;28;20033;-84
2021/04/28 12:40:52;;;;;;;7.38;3.75;;;32.90;24.10;;;;;;5015475;28;20033;-85
2021/04/28 12:43:24;;;;;;;9.95;3.95;;;33.10;22.60;;;;;;5024972;28;20026;-85
2021/04/28 12:45:51;;;;;;;7.53;4.10;;;33.60;23.30;;;;;;5021586;28;20496;-84
2021/04/28 12:48:19;;;;;;;9.57;4.32;;;33.50;21.60;;;;;;5022693;28;20029;-86
2021/04/28 12:50:47;;;;;;;8.68;5.10;;;33.00;22.10;;;;;;5025510;28;20132;-84
2021/04/28 12:53:22;;;;;;;16.27;3.95;;;31.50;22.90;;;;;;5012648;28;20048;-84
2021/04/28 12:55:59;;;;;;;7.32;3.40;;;30.00;24.00;;;;;;5023546;28;20030;-85